sensor_id;sensor_type;location;lat;lon;timestamp;P1;durP1;ratioP1;P2;durP2;ratioP2
63959;SDS011;50136;51.374;0.096;2023-04-23T00:00:05;7.55;;;2.95;;
63959;SDS011;50136;51.374;0.096;2023-04-23T00:10:09;6.35;;;1.88;;
63959;SDS011;50136;51.374;0.096;2023-04-23T00:20:13;7.68;;;2.05;;
63959;SDS011;50136;51.374;0.096;2023-04-23T00:30:15;4.72;;;1.35;;
63959;SDS011;50136;51.374;0.096;2023-04-23T00:40:19;4.93;;;2.17;;
63959;SDS011;50136;51.374;0.096;2023-04-23T00:50:21;5.70;;;1.60;;
63959;SDS011;50136;51.374;0.096;2023-04-23T01:00:25;30.30;;;3.53;;
63959;SDS011;50136;51.374;0.096;2023-04-23T01:10:27;6.72;;;2.28;;
63959;SDS011;50136;51.374;0.096;2023-04-23T01:20:30;8.70;;;2.58;;
63959;SDS011;50136;51.374;0.096;2023-04-23T01:30:34;12.90;;;2.10;;
63959;SDS011;50136;51.374;0.096;2023-04-23T01:40:36;16.85;;;3.85;;
63959;SDS011;50136;51.374;0.096;2023-04-23T01:50:40;13.85;;;2.63;;
63959;SDS011;50136;51.374;0.096;2023-04-23T02:00:42;7.75;;;1.77;;
63959;SDS011;50136;51.374;0.096;2023-04-23T02:10:46;8.70;;;1.92;;
63959;SDS011;50136;51.374;0.096;2023-04-23T02:20:48;11.45;;;2.38;;
63959;SDS011;50136;51.374;0.096;2023-04-23T02:30:51;15.82;;;2.10;;
63959;SDS011;50136;51.374;0.096;2023-04-23T02:40:53;9.35;;;2.40;;
63959;SDS011;50136;51.374;0.096;2023-04-23T02:50:56;10.52;;;2.28;;
63959;SDS011;50136;51.374;0.096;2023-04-23T03:00:58;13.75;;;3.53;;
63959;SDS011;50136;51.374;0.096;2023-04-23T03:11:02;12.43;;;2.72;;
63959;SDS011;50136;51.374;0.096;2023-04-23T03:21:04;14.48;;;2.15;;
63959;SDS011;50136;51.374;0.096;2023-04-23T03:31:07;7.90;;;2.75;;
63959;SDS011;50136;51.374;0.096;2023-04-23T03:41:09;13.00;;;2.38;;
63959;SDS011;50136;51.374;0.096;2023-04-23T03:51:12;9.80;;;2.70;;
63959;SDS011;50136;51.374;0.096;2023-04-23T04:01:14;12.07;;;2.40;;
63959;SDS011;50136;51.374;0.096;2023-04-23T04:11:18;7.65;;;2.13;;
63959;SDS011;50136;51.374;0.096;2023-04-23T04:21:20;8.38;;;2.35;;
63959;SDS011;50136;51.374;0.096;2023-04-23T04:31:23;11.93;;;2.60;;
63959;SDS011;50136;51.374;0.096;2023-04-23T04:41:25;13.15;;;2.80;;
63959;SDS011;50136;51.374;0.096;2023-04-23T04:51:28;13.25;;;2.58;;
63959;SDS011;50136;51.374;0.096;2023-04-23T05:01:30;18.10;;;2.55;;
63959;SDS011;50136;51.374;0.096;2023-04-23T05:11:36;18.30;;;2.50;;
63959;SDS011;50136;51.374;0.096;2023-04-23T05:21:38;11.35;;;2.38;;
63959;SDS011;50136;51.374;0.096;2023-04-23T05:31:41;15.05;;;2.53;;
63959;SDS011;50136;51.374;0.096;2023-04-23T05:41:43;17.80;;;3.13;;
63959;SDS011;50136;51.374;0.096;2023-04-23T05:51:47;16.40;;;2.80;;
63959;SDS011;50136;51.374;0.096;2023-04-23T06:01:49;15.02;;;3.65;;
63959;SDS011;50136;51.374;0.096;2023-04-23T06:11:52;12.50;;;2.55;;
63959;SDS011;50136;51.374;0.096;2023-04-23T06:21:55;7.90;;;2.42;;
63959;SDS011;50136;51.374;0.096;2023-04-23T06:32:00;12.13;;;2.55;;
63959;SDS011;50136;51.374;0.096;2023-04-23T06:42:02;11.02;;;2.75;;
63959;SDS011;50136;51.374;0.096;2023-04-23T06:52:06;15.48;;;2.92;;
63959;SDS011;50136;51.374;0.096;2023-04-23T07:02:08;14.38;;;2.65;;
63959;SDS011;50136;51.374;0.096;2023-04-23T07:12:12;14.77;;;3.80;;
63959;SDS011;50136;51.374;0.096;2023-04-23T07:22:14;12.50;;;2.55;;
63959;SDS011;50136;51.374;0.096;2023-04-23T07:32:17;15.55;;;2.97;;
63959;SDS011;50136;51.374;0.096;2023-04-23T07:42:19;9.50;;;2.67;;
63959;SDS011;50136;51.374;0.096;2023-04-23T07:52:22;13.15;;;2.78;;
63959;SDS011;50136;51.374;0.096;2023-04-23T08:02:24;15.13;;;2.65;;
63959;SDS011;50136;51.374;0.096;2023-04-23T08:12:28;8.32;;;2.08;;
63959;SDS011;50136;51.374;0.096;2023-04-23T08:22:33;15.02;;;2.67;;
63959;SDS011;50136;51.374;0.096;2023-04-23T08:32:39;12.45;;;3.60;;
63959;SDS011;50136;51.374;0.096;2023-04-23T08:42:44;20.33;;;3.50;;
63959;SDS011;50136;51.374;0.096;2023-04-23T08:52:51;9.20;;;2.22;;
63959;SDS011;50136;51.374;0.096;2023-04-23T09:02:54;11.70;;;2.53;;
63959;SDS011;50136;51.374;0.096;2023-04-23T09:12:58;11.45;;;2.53;;
63959;SDS011;50136;51.374;0.096;2023-04-23T09:23:00;7.60;;;2.92;;
63959;SDS011;50136;51.374;0.096;2023-04-23T09:33:09;4.53;;;1.65;;
63959;SDS011;50136;51.374;0.096;2023-04-23T09:43:11;6.53;;;1.38;;
63959;SDS011;50136;51.374;0.096;2023-04-23T09:53:15;2.83;;;1.05;;
63959;SDS011;50136;51.374;0.096;2023-04-23T10:03:17;3.95;;;1.40;;
63959;SDS011;50136;51.374;0.096;2023-04-23T10:13:30;6.30;;;1.30;;
63959;SDS011;50136;51.374;0.096;2023-04-23T10:23:33;3.08;;;1.00;;
63959;SDS011;50136;51.374;0.096;2023-04-23T10:33:38;3.00;;;1.60;;
63959;SDS011;50136;51.374;0.096;2023-04-23T10:43:56;1.87;;;0.90;;
63959;SDS011;50136;51.374;0.096;2023-04-23T10:53:59;2.33;;;0.93;;
63959;SDS011;50136;51.374;0.096;2023-04-23T11:14:22;1.77;;;0.80;;
63959;SDS011;50136;51.374;0.096;2023-04-23T11:24:34;1.75;;;0.70;;
63959;SDS011;50136;51.374;0.096;2023-04-23T11:34:39;1.90;;;0.80;;
63959;SDS011;50136;51.374;0.096;2023-04-23T11:44:43;3.75;;;1.02;;
63959;SDS011;50136;51.374;0.096;2023-04-23T11:54:47;7.10;;;3.35;;
63959;SDS011;50136;51.374;0.096;2023-04-23T12:04:49;2.35;;;0.70;;
63959;SDS011;50136;51.374;0.096;2023-04-23T12:15:01;1.73;;;0.80;;
63959;SDS011;50136;51.374;0.096;2023-04-23T12:25:04;1.45;;;0.90;;
63959;SDS011;50136;51.374;0.096;2023-04-23T12:35:08;4.25;;;1.30;;
63959;SDS011;50136;51.374;0.096;2023-04-23T12:45:10;4.47;;;1.77;;
63959;SDS011;50136;51.374;0.096;2023-04-23T12:55:14;2.75;;;1.45;;
63959;SDS011;50136;51.374;0.096;2023-04-23T13:05:17;2.70;;;1.65;;
63959;SDS011;50136;51.374;0.096;2023-04-23T13:15:20;3.15;;;1.70;;
63959;SDS011;50136;51.374;0.096;2023-04-23T13:25:22;3.10;;;1.48;;
63959;SDS011;50136;51.374;0.096;2023-04-23T13:35:25;3.50;;;2.50;;
63959;SDS011;50136;51.374;0.096;2023-04-23T13:45:28;2.83;;;1.80;;
63959;SDS011;50136;51.374;0.096;2023-04-23T13:55:31;7.00;;;2.08;;
63959;SDS011;50136;51.374;0.096;2023-04-23T14:05:33;2.30;;;1.65;;
63959;SDS011;50136;51.374;0.096;2023-04-23T14:15:36;1.58;;;0.90;;
63959;SDS011;50136;51.374;0.096;2023-04-23T14:25:39;3.10;;;1.15;;
63959;SDS011;50136;51.374;0.096;2023-04-23T14:35:43;1.90;;;1.58;;
63959;SDS011;50136;51.374;0.096;2023-04-23T14:45:45;4.63;;;1.90;;
63959;SDS011;50136;51.374;0.096;2023-04-23T14:55:49;2.78;;;1.90;;
63959;SDS011;50136;51.374;0.096;2023-04-23T15:05:50;3.38;;;2.33;;
63959;SDS011;50136;51.374;0.096;2023-04-23T15:15:55;4.95;;;3.75;;
63959;SDS011;50136;51.374;0.096;2023-04-23T15:25:57;6.43;;;4.40;;
63959;SDS011;50136;51.374;0.096;2023-04-23T15:36:01;6.30;;;4.60;;
63959;SDS011;50136;51.374;0.096;2023-04-23T15:46:03;9.23;;;5.40;;
63959;SDS011;50136;51.374;0.096;2023-04-23T15:56:07;6.85;;;4.10;;
63959;SDS011;50136;51.374;0.096;2023-04-23T16:06:08;6.00;;;4.43;;
63959;SDS011;50136;51.374;0.096;2023-04-23T16:16:14;6.93;;;4.65;;
63959;SDS011;50136;51.374;0.096;2023-04-23T16:26:16;5.40;;;4.57;;
63959;SDS011;50136;51.374;0.096;2023-04-23T16:36:25;4.65;;;3.88;;
63959;SDS011;50136;51.374;0.096;2023-04-23T16:46:27;4.70;;;3.60;;
63959;SDS011;50136;51.374;0.096;2023-04-23T16:56:30;9.00;;;4.38;;
63959;SDS011;50136;51.374;0.096;2023-04-23T17:06:33;7.75;;;5.13;;
63959;SDS011;50136;51.374;0.096;2023-04-23T17:16:48;12.07;;;7.82;;
63959;SDS011;50136;51.374;0.096;2023-04-23T17:26:55;6.70;;;4.37;;
63959;SDS011;50136;51.374;0.096;2023-04-23T17:36:58;4.75;;;3.60;;
63959;SDS011;50136;51.374;0.096;2023-04-23T17:47:00;5.57;;;4.10;;
63959;SDS011;50136;51.374;0.096;2023-04-23T17:57:04;5.47;;;3.65;;
63959;SDS011;50136;51.374;0.096;2023-04-23T18:07:06;5.97;;;3.25;;
63959;SDS011;50136;51.374;0.096;2023-04-23T18:17:09;5.45;;;4.32;;
63959;SDS011;50136;51.374;0.096;2023-04-23T18:27:11;7.50;;;6.47;;
63959;SDS011;50136;51.374;0.096;2023-04-23T18:37:31;7.53;;;6.18;;
63959;SDS011;50136;51.374;0.096;2023-04-23T18:47:37;6.97;;;5.65;;
63959;SDS011;50136;51.374;0.096;2023-04-23T18:57:45;5.70;;;4.40;;
63959;SDS011;50136;51.374;0.096;2023-04-23T19:07:47;8.07;;;5.75;;
63959;SDS011;50136;51.374;0.096;2023-04-23T19:17:51;6.88;;;4.85;;
63959;SDS011;50136;51.374;0.096;2023-04-23T19:27:53;7.15;;;4.85;;
63959;SDS011;50136;51.374;0.096;2023-04-23T19:37:56;6.13;;;5.05;;
63959;SDS011;50136;51.374;0.096;2023-04-23T19:47:58;7.38;;;3.90;;
63959;SDS011;50136;51.374;0.096;2023-04-23T19:58:02;5.47;;;2.72;;
63959;SDS011;50136;51.374;0.096;2023-04-23T20:08:04;5.13;;;3.53;;
63959;SDS011;50136;51.374;0.096;2023-04-23T20:18:07;5.95;;;4.38;;
63959;SDS011;50136;51.374;0.096;2023-04-23T20:28:09;6.15;;;4.43;;
63959;SDS011;50136;51.374;0.096;2023-04-23T20:38:13;6.30;;;5.15;;
63959;SDS011;50136;51.374;0.096;2023-04-23T20:48:15;7.30;;;5.85;;
63959;SDS011;50136;51.374;0.096;2023-04-23T20:58:18;6.72;;;5.75;;
63959;SDS011;50136;51.374;0.096;2023-04-23T21:08:20;9.90;;;6.63;;
63959;SDS011;50136;51.374;0.096;2023-04-23T21:18:23;9.07;;;6.93;;
63959;SDS011;50136;51.374;0.096;2023-04-23T21:28:25;14.55;;;8.73;;
63959;SDS011;50136;51.374;0.096;2023-04-23T21:38:29;13.45;;;8.93;;
63959;SDS011;50136;51.374;0.096;2023-04-23T21:48:31;12.98;;;9.73;;
63959;SDS011;50136;51.374;0.096;2023-04-23T21:58:34;21.02;;;13.52;;
63959;SDS011;50136;51.374;0.096;2023-04-23T22:08:36;18.92;;;13.85;;
63959;SDS011;50136;51.374;0.096;2023-04-23T22:18:39;23.15;;;15.10;;
63959;SDS011;50136;51.374;0.096;2023-04-23T22:28:41;22.42;;;15.00;;
63959;SDS011;50136;51.374;0.096;2023-04-23T22:38:45;27.38;;;16.85;;
63959;SDS011;50136;51.374;0.096;2023-04-23T22:48:47;22.02;;;15.95;;
63959;SDS011;50136;51.374;0.096;2023-04-23T22:58:51;25.30;;;16.45;;
63959;SDS011;50136;51.374;0.096;2023-04-23T23:08:53;27.42;;;18.20;;
63959;SDS011;50136;51.374;0.096;2023-04-23T23:18:56;25.20;;;18.08;;
63959;SDS011;50136;51.374;0.096;2023-04-23T23:28:58;30.23;;;21.38;;
63959;SDS011;50136;51.374;0.096;2023-04-23T23:39:02;27.48;;;20.77;;
63959;SDS011;50136;51.374;0.096;2023-04-23T23:49:04;38.40;;;25.33;;
63959;SDS011;50136;51.374;0.096;2023-04-23T23:59:07;41.72;;;27.13;;
